Pagrindinis puslapis
METAR-TAF:

METAR-TAF

Oro uostai :

Kešmas, Iranas

platuma: 26-45-18N, ilguma: 055-54-08E, Aukštis: 12 m

Dabartinis oras

Ataskaita buvo paskelbta 46 minutes, ne 16:00 UTC
Vėjas 6 kt iš Rytų
Temperatūra 21°C
Drėgmė 73%
Slėgis 1017 hPa
Matomumas 10 km arba daugiau
Mažai debesys ne aukštis 3000 ft

METAR: OIKQ 221600Z 08006KT 9999 FEW030 21/16 Q1017

Laikas: 20:16 (16:46 UTC)


TAF: trūkstamas

Orai ataskaitas ir orų prognozės (METAR, TAF).

turimą stotys yra geltonos ir raudonos taškus žemėlapyje.

Perkelti pele per norėdami pamatyti stoties vardą.

Tada spustelėkite, norėdami matyti oro stebėjimo ir prognozės.

Norėdami pakeisti žemėlapį: spustelėkite ant žalios mygtukų su juodo kryžiaus žemyn,; žalią mygtuką su brūkšneliu, jei norite nutolinti; arba žalių rodyklių gretimoms žemėlapius.


METAR-TAF: